Moccasin, California
Current Conditions -  °F | °C
As of 1:35 PM on Friday 24 Oct 2014 (Local Time) from KO22 Reporting Station
Clear Clear  
Wind Chill: 81°   Ceiling: Unl
Heat Index: 81°   Visibility: 10mi
Dew Point: 32°   Wind: 9mph
Humidity: 17%   Direction: 200°SSW
Pressure: 29.95"   Gusts: 18mph
Location:  37.81°N, 120.3°W
Report Text: KO22 242035Z AUTO 20008G16KT 10SM CLR 27/00 A2995 RMK AO1
Loading
Personal Weather Stations






























Interactive Weather Map
Tropical Storm Tracking
New forecast layout! Learn more

10-Day Weather Forecast

Advertisements
Track Severe Weather on mobile